Time;durP1;ratioP1;P1;durP2;ratioP2;P2;SDS_P1;SDS_P2;PMS_P1;PMS_P2;Temp;Humidity;BMP_temperature;BMP_pressure;BME280_temperature;BME280_humidity;BME280_pressure;Samples;Min_cycle;Max_cycle;Signal;HPM_P1;HPM_P2
2021/03/15 00:00:49;;;;;;;4.00;3.70;;;7.30;38.70;;;;;;10457763;28;20716;-77
2021/03/15 00:05:58;;;;;;;3.90;3.60;;;7.30;38.70;;;;;;10454963;28;20730;-77
2021/03/15 00:11:01;;;;;;;3.80;3.50;;;7.30;38.70;;;;;;10463487;28;20233;-77
2021/03/15 00:16:04;;;;;;;3.57;3.27;;;7.30;38.70;;;;;;10455836;28;20715;-77
2021/03/15 00:21:06;;;;;;;3.70;3.37;;;7.30;38.70;;;;;;10466675;28;20228;-77
2021/03/15 00:26:08;;;;;;;3.90;3.60;;;7.40;38.80;;;;;;10470422;28;20228;-77
2021/03/15 00:31:11;;;;;;;4.10;3.70;;;7.40;38.80;;;;;;10468033;28;20235;-77
2021/03/15 00:36:14;;;;;;;5.63;3.27;;;7.30;38.70;;;;;;10469049;28;20225;-77
2021/03/15 00:41:16;;;;;;;3.50;3.30;;;7.30;38.70;;;;;;10472955;28;20711;-77
2021/03/15 00:46:19;;;;;;;3.90;3.60;;;7.40;38.80;;;;;;10459823;28;20256;-77
2021/03/15 00:51:22;;;;;;;3.73;3.43;;;7.40;38.80;;;;;;10457532;28;20237;-77
2021/03/15 00:56:24;;;;;;;3.63;3.33;;;7.40;38.80;;;;;;10470963;28;20696;-77
2021/03/15 01:01:27;;;;;;;3.70;3.40;;;7.40;38.80;;;;;;10460410;28;20644;-77
2021/03/15 01:06:30;;;;;;;3.67;3.47;;;7.40;39.00;;;;;;10460798;28;20225;-77
2021/03/15 01:11:32;;;;;;;3.50;3.30;;;7.40;38.80;;;;;;10473573;28;20225;-77
2021/03/15 01:16:35;;;;;;;4.10;3.67;;;7.40;38.80;;;;;;10457447;28;20317;-77
2021/03/15 01:21:38;;;;;;;3.80;3.50;;;7.40;38.90;;;;;;10451125;28;20629;-77
2021/03/15 01:26:40;;;;;;;4.17;3.80;;;7.40;38.80;;;;;;10454467;28;20589;-77
2021/03/15 01:31:43;;;;;;;3.70;3.50;;;7.40;38.80;;;;;;10473691;28;20229;-77
2021/03/15 01:36:45;;;;;;;4.00;3.67;;;7.40;38.80;;;;;;10459120;28;20224;-77
2021/03/15 01:41:47;;;;;;;4.23;3.90;;;7.30;38.70;;;;;;10470377;28;20232;-77
2021/03/15 01:46:50;;;;;;;4.00;3.70;;;7.30;38.70;;;;;;10463302;28;20278;-77
2021/03/15 01:51:55;;;;;;;4.43;4.03;;;7.20;38.80;;;;;;10464744;28;20335;-78
2021/03/15 01:56:57;;;;;;;4.27;3.87;;;7.20;39.00;;;;;;10481968;28;20735;-77
2021/03/15 02:02:01;;;;;;;5.77;4.17;;;7.20;38.60;;;;;;10456719;28;20235;-77
2021/03/15 02:07:04;;;;;;;4.30;4.00;;;7.20;38.70;;;;;;10464192;28;20225;-77
2021/03/15 02:12:23;;;;;;;4.23;3.77;;;7.20;38.60;;;;;;10462435;28;20235;-77
2021/03/15 02:17:40;;;;;;;3.90;3.60;;;7.10;39.30;;;;;;10448296;28;20708;-77
2021/03/15 02:23:00;;;;;;;4.60;3.73;;;7.10;39.10;;;;;;10475107;28;20270;-77
2021/03/15 02:28:21;;;;;;;3.83;3.50;;;7.10;39.30;;;;;;10448629;28;20229;-77
2021/03/15 02:33:59;;;;;;;4.37;4.03;;;7.10;39.30;;;;;;10457168;28;21257;-77
2021/03/15 02:39:04;;;;;;;4.63;4.10;;;7.00;39.20;;;;;;10459825;28;23253;-77
2021/03/15 02:44:08;;;;;;;4.50;4.13;;;7.00;38.80;;;;;;10454870;28;20760;-77
2021/03/15 02:49:15;;;;;;;4.03;3.73;;;6.80;38.70;;;;;;10461732;28;20315;-77
2021/03/15 02:54:21;;;;;;;4.33;4.00;;;6.80;39.20;;;;;;10460735;28;20244;-77
2021/03/15 02:59:24;;;;;;;3.93;3.63;;;6.70;39.30;;;;;;10467394;28;20233;-77
2021/03/15 03:04:27;;;;;;;5.10;4.13;;;6.70;39.00;;;;;;10462037;28;20221;-77
2021/03/15 03:09:31;;;;;;;5.10;3.70;;;6.60;39.10;;;;;;10462179;28;20233;-77
2021/03/15 03:14:35;;;;;;;4.03;3.73;;;6.60;39.40;;;;;;10467051;28;20235;-77
2021/03/15 03:19:40;;;;;;;4.20;3.53;;;6.70;39.40;;;;;;10462837;28;20247;-77
2021/03/15 03:24:45;;;;;;;3.90;3.60;;;6.70;40.10;;;;;;10449562;28;20224;-77
2021/03/15 03:29:49;;;;;;;4.83;4.13;;;6.70;39.50;;;;;;10463750;28;20303;-77
2021/03/15 03:34:51;;;;;;;4.97;4.10;;;6.70;40.20;;;;;;10457559;28;20224;-77
2021/03/15 03:39:54;;;;;;;3.63;3.33;;;6.70;39.40;;;;;;10451828;28;20228;-77
2021/03/15 03:44:57;;;;;;;4.73;4.30;;;6.70;39.60;;;;;;10453749;28;20217;-77
2021/03/15 03:49:59;;;;;;;5.07;4.57;;;6.70;39.60;;;;;;10448686;28;20315;-78
2021/03/15 03:55:09;;;;;;;4.57;4.17;;;6.70;39.70;;;;;;10453525;28;20722;-77
2021/03/15 04:00:14;;;;;;;4.40;4.00;;;6.70;40.40;;;;;;10446973;28;20229;-77
2021/03/15 04:05:22;;;;;;;5.13;3.80;;;6.70;40.20;;;;;;10459273;28;20216;-77
2021/03/15 04:10:29;;;;;;;3.97;3.50;;;6.80;40.40;;;;;;10470621;28;20228;-77
2021/03/15 04:15:32;;;;;;;3.93;3.63;;;6.80;40.40;;;;;;10452134;28;20233;-77
2021/03/15 04:20:37;;;;;;;3.50;3.20;;;6.80;40.00;;;;;;10459140;28;20235;-77
2021/03/15 04:25:41;;;;;;;3.53;3.23;;;6.90;40.00;;;;;;10456417;28;20224;-77
2021/03/15 04:30:45;;;;;;;3.10;2.90;;;6.80;40.30;;;;;;10469098;28;20742;-77
2021/03/15 04:35:48;;;;;;;4.00;3.70;;;6.80;40.50;;;;;;10459897;28;20709;-77
2021/03/15 04:40:52;;;;;;;3.80;3.50;;;6.80;40.20;;;;;;10457509;28;20248;-77
2021/03/15 04:45:55;;;;;;;4.33;3.57;;;6.70;40.50;;;;;;10442599;28;20221;-77
2021/03/15 04:50:59;;;;;;;3.50;3.30;;;6.60;40.30;;;;;;10456771;28;20631;-77
2021/03/15 04:56:06;;;;;;;3.73;3.43;;;6.60;40.50;;;;;;10446336;28;20231;-77
2021/03/15 05:01:09;;;;;;;3.20;3.00;;;6.60;40.70;;;;;;10468820;28;20250;-77
2021/03/15 05:06:14;;;;;;;3.53;3.23;;;6.60;41.30;;;;;;10474029;28;20236;-77
2021/03/15 05:11:19;;;;;;;3.43;3.13;;;6.60;40.60;;;;;;10460260;28;20712;-77
2021/03/15 05:16:22;;;;;;;3.93;3.50;;;6.70;40.80;;;;;;10464448;28;20235;-77
2021/03/15 05:21:25;;;;;;;3.40;3.10;;;6.70;40.60;;;;;;10455268;28;20220;-77
2021/03/15 05:26:30;;;;;;;3.17;2.87;;;6.70;40.60;;;;;;10470411;28;20708;-77
2021/03/15 05:31:35;;;;;;;3.37;3.07;;;6.70;40.80;;;;;;10452425;28;20251;-77
2021/03/15 05:36:39;;;;;;;3.37;2.90;;;6.60;40.90;;;;;;10470511;28;20282;-77
2021/03/15 05:42:00;;;;;;;3.37;3.10;;;6.60;40.90;;;;;;10494953;22;20224;-72
2021/03/15 05:47:36;;;;;;;3.90;3.60;;;6.60;41.70;;;;;;10475320;28;20228;-72
2021/03/15 05:53:08;;;;;;;3.87;3.57;;;6.60;41.70;;;;;;10441050;28;20248;-72
2021/03/15 05:58:50;;;;;;;5.77;5.17;;;6.60;41.30;;;;;;10438709;28;20236;-72
2021/03/15 06:04:13;;;;;;;4.17;3.80;;;6.60;41.60;;;;;;10428591;28;20216;-72
2021/03/15 06:09:20;;;;;;;4.30;3.63;;;6.60;41.50;;;;;;10439648;28;20232;-72
2021/03/15 06:14:23;;;;;;;3.67;3.40;;;6.60;41.20;;;;;;10438099;28;20240;-71
2021/03/15 06:19:26;;;;;;;3.63;3.27;;;6.60;41.00;;;;;;10437014;28;20233;-71
2021/03/15 06:24:29;;;;;;;3.37;2.70;;;6.50;40.90;;;;;;10437569;28;20220;-71
2021/03/15 06:29:32;;;;;;;3.50;3.20;;;6.50;41.10;;;;;;10433268;28;20597;-71
2021/03/15 06:34:36;;;;;;;5.43;3.67;;;6.50;41.30;;;;;;10446842;28;20235;-72
2021/03/15 06:39:38;;;;;;;3.87;3.57;;;6.60;41.30;;;;;;10439089;28;20230;-72
2021/03/15 06:44:42;;;;;;;4.27;3.10;;;6.60;41.30;;;;;;10437148;28;20721;-72
2021/03/15 06:49:44;;;;;;;3.50;3.20;;;6.70;41.40;;;;;;10430624;28;20316;-72
2021/03/15 06:54:47;;;;;;;3.20;2.90;;;6.70;41.30;;;;;;10443085;28;20633;-72
2021/03/15 06:59:53;;;;;;;3.07;2.73;;;6.70;41.30;;;;;;10440484;28;20237;-72
2021/03/15 07:05:07;;;;;;;3.37;3.07;;;6.80;41.40;;;;;;10427969;28;20280;-73
2021/03/15 07:10:20;;;;;;;3.53;3.17;;;6.90;42.00;;;;;;10440965;28;20262;-72
2021/03/15 07:15:32;;;;;;;3.60;3.23;;;7.00;42.00;;;;;;10432363;28;20231;-72
2021/03/15 07:20:41;;;;;;;4.80;4.30;;;7.10;41.50;;;;;;10444391;28;20224;-72
2021/03/15 07:25:43;;;;;;;2.80;2.60;;;7.10;41.90;;;;;;10438247;28;20635;-73
2021/03/15 07:30:48;;;;;;;2.50;2.30;;;7.20;41.10;;;;;;10436476;28;20248;-73
2021/03/15 07:35:50;;;;;;;2.50;2.30;;;7.30;41.30;;;;;;10436524;28;20216;-72
2021/03/15 07:40:53;;;;;;;2.30;2.10;;;7.40;41.10;;;;;;10429656;28;20221;-73
2021/03/15 07:45:56;;;;;;;3.07;2.60;;;7.50;41.10;;;;;;10446217;28;20232;-73
2021/03/15 07:51:00;;;;;;;2.73;2.30;;;7.60;41.10;;;;;;10427800;28;20233;-73
2021/03/15 07:56:03;;;;;;;2.33;2.13;;;7.60;40.90;;;;;;10421925;28;20327;-73
2021/03/15 08:01:09;;;;;;;3.07;2.63;;;7.70;40.90;;;;;;10437096;28;20238;-73
2021/03/15 08:06:12;;;;;;;2.43;1.90;;;7.90;40.90;;;;;;10430896;28;20724;-72
2021/03/15 08:11:16;;;;;;;2.10;1.77;;;7.90;40.40;;;;;;10434267;28;20244;-73
2021/03/15 08:16:21;;;;;;;2.80;1.90;;;8.00;40.40;;;;;;10419897;28;20312;-73
2021/03/15 08:21:28;;;;;;;3.53;2.30;;;8.10;40.60;;;;;;10444816;28;20229;-73
2021/03/15 08:26:32;;;;;;;1.93;1.60;;;8.20;40.60;;;;;;10433981;28;20224;-73
2021/03/15 08:31:41;;;;;;;2.30;1.63;;;8.20;40.40;;;;;;10418032;28;20275;-73
2021/03/15 08:36:44;;;;;;;2.90;1.50;;;8.30;40.40;;;;;;10438292;28;20222;-73
2021/03/15 08:41:46;;;;;;;1.73;1.57;;;8.40;40.40;;;;;;10432566;28;20239;-73
2021/03/15 08:46:50;;;;;;;2.53;1.67;;;8.50;40.40;;;;;;10440833;28;20649;-73
2021/03/15 08:51:52;;;;;;;2.53;1.60;;;8.60;40.20;;;;;;10449185;28;20232;-73
2021/03/15 08:56:54;;;;;;;2.53;1.80;;;8.60;40.10;;;;;;10433129;28;20225;-72
2021/03/15 09:02:00;;;;;;;2.60;1.83;;;8.60;40.30;;;;;;10428575;28;20901;-72
2021/03/15 09:07:04;;;;;;;2.20;1.80;;;8.70;40.40;;;;;;10435622;28;20237;-72
2021/03/15 09:12:18;;;;;;;2.97;2.00;;;8.70;40.40;;;;;;10424303;28;20760;-73
2021/03/15 09:17:37;;;;;;;2.27;1.93;;;8.70;40.90;;;;;;10421637;28;20315;-73
2021/03/15 09:22:39;;;;;;;2.23;2.03;;;8.60;41.10;;;;;;10424907;28;20225;-72
2021/03/15 09:27:42;;;;;;;2.17;1.87;;;8.50;40.60;;;;;;10427244;28;21095;-72
2021/03/15 09:32:47;;;;;;;2.00;1.67;;;8.50;41.00;;;;;;10423181;28;20221;-72
2021/03/15 09:37:52;;;;;;;2.43;2.13;;;8.50;41.10;;;;;;10434270;28;20217;-73
2021/03/15 09:42:54;;;;;;;2.40;2.20;;;8.50;41.40;;;;;;10433061;28;20223;-72
2021/03/15 09:47:58;;;;;;;2.30;2.10;;;8.50;41.10;;;;;;10429201;28;20236;-72
2021/03/15 09:53:08;;;;;;;2.37;2.17;;;8.60;41.20;;;;;;10430636;28;20241;-73
2021/03/15 09:58:14;;;;;;;2.00;1.90;;;8.60;41.80;;;;;;10429790;28;20719;-73
2021/03/15 10:03:22;;;;;;;1.70;1.60;;;8.60;41.10;;;;;;10414930;28;20756;-73
2021/03/15 10:08:26;;;;;;;1.53;1.30;;;8.60;41.30;;;;;;10428614;28;20713;-73
2021/03/15 10:13:28;;;;;;;1.83;1.70;;;8.60;41.20;;;;;;10434842;28;20317;-73
2021/03/15 10:18:31;;;;;;;2.97;2.67;;;8.70;41.50;;;;;;10435343;28;20234;-73
2021/03/15 10:23:41;;;;;;;1.27;1.17;;;8.80;41.40;;;;;;10424943;28;20236;-72
2021/03/15 10:28:48;;;;;;;1.63;1.53;;;8.90;41.30;;;;;;10420882;28;20607;-73
2021/03/15 10:33:53;;;;;;;1.37;1.37;;;9.00;41.10;;;;;;10420052;28;20218;-73
2021/03/15 10:38:56;;;;;;;1.27;1.17;;;9.10;41.10;;;;;;10429255;28;20228;-73
2021/03/15 10:43:59;;;;;;;1.10;1.10;;;9.10;40.70;;;;;;10421208;28;20272;-73
2021/03/15 10:49:16;;;;;;;1.00;1.00;;;9.10;40.70;;;;;;10426615;28;20224;-73
2021/03/15 10:54:30;;;;;;;1.63;1.40;;;9.10;40.80;;;;;;10431599;28;20311;-73
2021/03/15 10:59:33;;;;;;;1.00;1.00;;;9.20;41.20;;;;;;10425720;28;20304;-73
2021/03/15 11:04:37;;;;;;;0.90;0.90;;;9.20;40.70;;;;;;10427522;28;20271;-73
2021/03/15 11:09:39;;;;;;;0.90;0.90;;;9.30;41.10;;;;;;10427266;28;20588;-73
2021/03/15 11:14:55;;;;;;;1.00;1.00;;;9.30;40.70;;;;;;10430663;28;20228;-73
2021/03/15 11:19:58;;;;;;;1.53;1.00;;;9.40;40.80;;;;;;10425400;28;20279;-72
2021/03/15 11:25:08;;;;;;;1.30;1.20;;;9.40;40.80;;;;;;10428592;28;20226;-72
2021/03/15 11:30:28;;;;;;;1.03;1.00;;;9.40;41.00;;;;;;10413463;28;20229;-72
2021/03/15 11:35:33;;;;;;;0.80;0.80;;;9.40;41.40;;;;;;10413285;28;20221;-72
2021/03/15 11:40:38;;;;;;;1.10;1.00;;;9.40;40.50;;;;;;10430987;28;20612;-73
2021/03/15 11:45:41;;;;;;;0.83;0.83;;;9.30;40.90;;;;;;10409829;28;20233;-73
2021/03/15 11:50:44;;;;;;;0.90;0.90;;;9.20;40.40;;;;;;10409344;28;20229;-73
2021/03/15 11:55:46;;;;;;;0.80;0.80;;;9.20;40.80;;;;;;10409474;28;20225;-73
2021/03/15 12:00:49;;;;;;;1.20;1.20;;;9.10;40.50;;;;;;10407941;28;20225;-73
2021/03/15 12:05:52;;;;;;;0.80;0.80;;;9.00;40.70;;;;;;10408173;28;20221;-73
2021/03/15 12:10:55;;;;;;;1.07;1.07;;;8.90;41.00;;;;;;10407700;28;20229;-73
2021/03/15 12:15:57;;;;;;;1.83;1.73;;;8.80;41.30;;;;;;10415205;28;20235;-73
2021/03/15 12:21:00;;;;;;;0.77;0.77;;;8.80;41.60;;;;;;10415904;28;20229;-73
2021/03/15 12:26:03;;;;;;;1.10;1.10;;;8.70;41.50;;;;;;10435289;28;20220;-73
2021/03/15 12:31:06;;;;;;;0.70;0.70;;;8.70;41.90;;;;;;10425090;28;20324;-73
2021/03/15 12:36:10;;;;;;;0.73;0.73;;;8.80;41.80;;;;;;10431908;28;20312;-73
2021/03/15 12:41:12;;;;;;;0.90;0.90;;;8.80;42.00;;;;;;10456505;28;20678;-73
2021/03/15 12:46:18;;;;;;;0.97;0.97;;;8.80;41.70;;;;;;10455801;28;20303;-73
2021/03/15 12:51:30;;;;;;;1.10;1.07;;;8.90;42.00;;;;;;10415219;28;20232;-73
2021/03/15 12:56:32;;;;;;;1.70;1.60;;;8.90;42.00;;;;;;10431473;28;20224;-73
2021/03/15 13:01:34;;;;;;;1.27;1.20;;;9.00;41.90;;;;;;10455482;28;20736;-73
2021/03/15 13:06:39;;;;;;;1.57;1.50;;;8.90;41.90;;;;;;10456003;28;20231;-73
2021/03/15 13:11:41;;;;;;;1.77;1.67;;;9.00;42.10;;;;;;10455610;28;20703;-74
2021/03/15 13:16:43;;;;;;;2.10;2.00;;;8.90;41.90;;;;;;10453523;28;20613;-74
2021/03/15 13:21:47;;;;;;;1.70;1.60;;;8.90;42.00;;;;;;10449936;28;20645;-73
2021/03/15 13:26:49;;;;;;;1.60;1.50;;;9.00;42.20;;;;;;10439565;28;20231;-74
2021/03/15 13:31:53;;;;;;;1.43;1.33;;;9.00;42.20;;;;;;10413373;28;20705;-74
2021/03/15 13:36:56;;;;;;;1.57;1.47;;;9.00;42.00;;;;;;10453821;28;20225;-74
2021/03/15 13:41:58;;;;;;;2.87;2.67;;;9.10;42.40;;;;;;10455603;28;20227;-74
2021/03/15 13:47:02;;;;;;;1.77;1.67;;;9.10;42.20;;;;;;10455196;28;20235;-73
2021/03/15 13:52:06;;;;;;;1.40;1.40;;;9.20;42.10;;;;;;10455126;28;20308;-73
2021/03/15 13:57:08;;;;;;;1.23;1.23;;;9.20;42.20;;;;;;10453808;28;20256;-73
2021/03/15 14:02:10;;;;;;;1.20;1.10;;;9.20;42.10;;;;;;10454580;28;20255;-73
2021/03/15 14:07:16;;;;;;;0.80;0.80;;;9.20;42.40;;;;;;10454422;28;20316;-73
2021/03/15 14:12:18;;;;;;;0.90;0.90;;;9.20;42.40;;;;;;10454339;28;20335;-73
2021/03/15 14:17:21;;;;;;;0.80;0.80;;;9.10;41.80;;;;;;10451168;28;20697;-73
2021/03/15 14:22:24;;;;;;;0.70;0.70;;;9.00;41.90;;;;;;10454225;28;20236;-73
2021/03/15 14:27:26;;;;;;;0.90;0.90;;;8.90;42.20;;;;;;10453779;28;20592;-73
2021/03/15 14:32:28;;;;;;;1.00;1.00;;;8.90;42.50;;;;;;10453297;28;20235;-73
2021/03/15 14:37:32;;;;;;;1.37;1.27;;;8.80;42.70;;;;;;10452198;28;20227;-74
2021/03/15 14:42:34;;;;;;;0.80;0.80;;;8.90;43.00;;;;;;10453457;28;20248;-74
2021/03/15 14:47:36;;;;;;;1.00;1.00;;;8.90;43.00;;;;;;10453334;28;20282;-74
2021/03/15 14:52:40;;;;;;;1.13;1.13;;;9.00;43.00;;;;;;10453178;28;20224;-73
2021/03/15 14:57:42;;;;;;;0.90;0.90;;;9.00;43.00;;;;;;10453140;28;20252;-74
2021/03/15 15:02:44;;;;;;;1.30;1.30;;;9.10;42.80;;;;;;10452687;28;20219;-74
2021/03/15 15:07:48;;;;;;;0.90;0.90;;;9.10;42.90;;;;;;10451833;28;20259;-73
2021/03/15 15:12:50;;;;;;;0.93;0.80;;;9.10;42.50;;;;;;10452128;28;20225;-74
2021/03/15 15:17:52;;;;;;;0.83;0.83;;;9.00;42.30;;;;;;10451833;28;20253;-74
2021/03/15 15:22:56;;;;;;;0.77;0.77;;;8.90;42.40;;;;;;10452012;28;20708;-73
2021/03/15 15:28:00;;;;;;;0.97;0.97;;;8.90;42.90;;;;;;10451720;28;20231;-73
2021/03/15 15:33:03;;;;;;;1.30;1.20;;;8.90;42.60;;;;;;10451185;28;20247;-74
2021/03/15 15:38:07;;;;;;;0.87;0.87;;;8.90;42.60;;;;;;10450955;28;20256;-74
2021/03/15 15:43:09;;;;;;;0.73;0.73;;;8.90;42.50;;;;;;10451253;28;20300;-74
2021/03/15 15:48:12;;;;;;;1.20;1.10;;;9.00;42.40;;;;;;10450145;28;20606;-74
2021/03/15 15:53:16;;;;;;;0.90;0.90;;;9.00;42.00;;;;;;10441534;28;20229;-74
2021/03/15 15:58:18;;;;;;;0.90;0.90;;;9.00;41.80;;;;;;10445199;28;20632;-74
2021/03/15 16:03:20;;;;;;;0.93;0.93;;;9.00;41.80;;;;;;10450267;28;20311;-73
2021/03/15 16:08:23;;;;;;;1.10;1.10;;;9.00;41.90;;;;;;10446020;28;20235;-74
2021/03/15 16:13:26;;;;;;;1.00;1.00;;;9.00;41.70;;;;;;10435984;28;20235;-74
2021/03/15 16:18:28;;;;;;;1.00;1.00;;;9.10;41.50;;;;;;10440600;28;20247;-74
2021/03/15 16:23:31;;;;;;;0.93;0.93;;;9.10;41.30;;;;;;10433566;28;20228;-73
2021/03/15 16:28:33;;;;;;;1.30;1.30;;;9.10;41.30;;;;;;10428684;28;20225;-73
2021/03/15 16:33:35;;;;;;;1.40;1.30;;;9.10;41.20;;;;;;10431589;28;20229;-74
2021/03/15 16:38:39;;;;;;;1.20;1.20;;;9.10;41.20;;;;;;10426664;28;20794;-73
2021/03/15 16:43:41;;;;;;;1.23;1.13;;;9.20;41.40;;;;;;10427704;28;20666;-73
2021/03/15 16:48:44;;;;;;;1.40;1.30;;;9.20;41.00;;;;;;10432402;28;20221;-73
2021/03/15 16:53:47;;;;;;;1.60;1.50;;;9.20;41.00;;;;;;10436255;28;20271;-73
2021/03/15 16:58:49;;;;;;;1.67;1.47;;;9.30;40.90;;;;;;10428946;28;20236;-74
2021/03/15 17:03:51;;;;;;;1.80;1.70;;;9.30;40.80;;;;;;10434977;28;20241;-73
2021/03/15 17:08:55;;;;;;;2.57;2.37;;;9.30;41.00;;;;;;10430189;28;20655;-73
2021/03/15 17:13:57;;;;;;;2.80;2.50;;;9.30;40.70;;;;;;10428770;28;20224;-74
2021/03/15 17:18:59;;;;;;;2.40;2.20;;;9.30;40.80;;;;;;10432654;28;20649;-74
2021/03/15 17:24:02;;;;;;;2.93;2.70;;;9.30;40.30;;;;;;10430611;28;20278;-75
2021/03/15 17:29:04;;;;;;;8.90;8.00;;;9.30;40.80;;;;;;10455522;28;20237;-73
2021/03/15 17:34:06;;;;;;;8.30;7.60;;;9.30;41.20;;;;;;10455499;28;20239;-74
2021/03/15 17:39:09;;;;;;;9.00;8.10;;;9.30;41.00;;;;;;10464832;28;20260;-73
2021/03/15 17:44:12;;;;;;;7.70;7.07;;;9.30;40.80;;;;;;10488209;28;20224;-73
2021/03/15 17:49:14;;;;;;;9.43;8.63;;;9.30;40.50;;;;;;10454654;28;20236;-74
2021/03/15 17:54:17;;;;;;;9.00;8.30;;;9.20;40.20;;;;;;10454842;28;20243;-74
2021/03/15 17:59:19;;;;;;;6.23;5.63;;;9.20;40.20;;;;;;10447355;28;20719;-74
2021/03/15 18:04:21;;;;;;;4.77;4.37;;;9.10;40.30;;;;;;10436263;28;20690;-74
2021/03/15 18:09:24;;;;;;;4.70;4.30;;;9.00;40.20;;;;;;10440831;28;20233;-74
2021/03/15 18:14:28;;;;;;;3.90;3.60;;;9.00;40.40;;;;;;10453110;28;20312;-74
2021/03/15 18:19:30;;;;;;;6.03;3.50;;;9.00;40.40;;;;;;10454183;28;20606;-74
2021/03/15 18:24:34;;;;;;;2.30;2.10;;;9.00;40.20;;;;;;10454058;28;20279;-74
2021/03/15 18:29:36;;;;;;;2.40;2.20;;;8.90;40.00;;;;;;10453787;28;20817;-73
2021/03/15 18:34:38;;;;;;;2.47;1.90;;;8.90;40.00;;;;;;10453554;28;20228;-73
2021/03/15 18:39:43;;;;;;;4.23;2.90;;;8.80;39.90;;;;;;10453278;28;20259;-73
2021/03/15 18:44:45;;;;;;;4.77;2.30;;;8.80;39.90;;;;;;10453131;28;20247;-73
2021/03/15 18:49:49;;;;;;;1.87;1.77;;;8.80;39.90;;;;;;10453288;28;20233;-73
2021/03/15 18:54:52;;;;;;;3.23;2.30;;;8.70;39.80;;;;;;10452692;28;20315;-74
2021/03/15 18:59:54;;;;;;;1.70;1.60;;;8.60;39.70;;;;;;10452178;28;20304;-73
2021/03/15 19:04:56;;;;;;;2.47;2.10;;;8.60;39.80;;;;;;10452363;28;20299;-73
2021/03/15 19:09:59;;;;;;;2.17;1.93;;;8.60;39.80;;;;;;10451802;28;20617;-73
2021/03/15 19:15:03;;;;;;;3.40;2.00;;;8.50;39.80;;;;;;10451774;28;20635;-73
2021/03/15 19:20:07;;;;;;;3.10;2.10;;;8.50;40.00;;;;;;10451765;28;20243;-73
2021/03/15 19:25:12;;;;;;;3.90;2.80;;;8.40;39.80;;;;;;10451413;28;20312;-73
2021/03/15 19:30:15;;;;;;;3.57;2.43;;;8.40;39.90;;;;;;10451429;28;20237;-73
2021/03/15 19:35:20;;;;;;;3.17;2.87;;;8.40;39.90;;;;;;10451305;28;20299;-73
2021/03/15 19:40:23;;;;;;;3.80;2.67;;;8.30;39.90;;;;;;10451290;28;20271;-73
2021/03/15 19:45:25;;;;;;;2.73;2.53;;;8.20;40.00;;;;;;10450888;28;20221;-73
2021/03/15 19:50:28;;;;;;;3.67;2.93;;;8.10;40.00;;;;;;10450678;28;20225;-73
2021/03/15 19:55:31;;;;;;;3.17;2.87;;;8.10;40.20;;;;;;10451199;28;20270;-73
2021/03/15 20:00:34;;;;;;;4.77;3.00;;;8.00;40.40;;;;;;10450738;28;20231;-73
2021/03/15 20:05:37;;;;;;;3.30;3.00;;;8.00;40.40;;;;;;10450636;28;20225;-73
2021/03/15 20:10:40;;;;;;;3.10;2.90;;;8.00;40.50;;;;;;10448988;28;20233;-73
2021/03/15 20:15:43;;;;;;;3.33;3.03;;;7.90;40.60;;;;;;10452608;28;20304;-73
2021/03/15 20:20:45;;;;;;;3.17;2.97;;;7.90;40.60;;;;;;10420904;28;20313;-72
2021/03/15 20:25:50;;;;;;;3.40;3.10;;;7.90;40.60;;;;;;10426146;28;20651;-73
2021/03/15 20:30:53;;;;;;;3.30;3.00;;;7.90;40.80;;;;;;10434114;28;20225;-73
2021/03/15 20:35:55;;;;;;;2.90;2.70;;;7.90;40.60;;;;;;10420578;28;20229;-73
2021/03/15 20:40:59;;;;;;;3.07;2.77;;;7.90;40.70;;;;;;10445265;28;20316;-73
2021/03/15 20:46:01;;;;;;;4.17;3.00;;;7.90;40.90;;;;;;10438798;28;20225;-73
2021/03/15 20:51:05;;;;;;;3.27;2.97;;;7.90;40.80;;;;;;10437185;28;20309;-73
2021/03/15 20:56:10;;;;;;;3.50;3.20;;;7.90;41.00;;;;;;10426901;28;20234;-72
2021/03/15 21:01:12;;;;;;;3.90;3.30;;;7.90;41.10;;;;;;10434071;28;20240;-72
2021/03/15 21:06:15;;;;;;;3.83;3.40;;;7.90;41.00;;;;;;10439407;28;20229;-72
2021/03/15 21:11:18;;;;;;;3.33;3.13;;;7.90;41.10;;;;;;10438066;28;20779;-72
2021/03/15 21:16:20;;;;;;;4.07;3.43;;;7.80;41.20;;;;;;10433073;28;20324;-72
2021/03/15 21:21:22;;;;;;;4.30;3.63;;;7.80;41.20;;;;;;10434977;28;20229;-73
2021/03/15 21:26:26;;;;;;;4.10;3.80;;;7.80;41.20;;;;;;10433737;28;20710;-73
2021/03/15 21:31:28;;;;;;;3.00;2.80;;;7.80;41.40;;;;;;10433294;28;20308;-73
2021/03/15 21:36:30;;;;;;;3.33;3.00;;;7.80;41.40;;;;;;10434249;28;20226;-73
2021/03/15 21:41:33;;;;;;;3.30;2.80;;;7.80;41.60;;;;;;10434767;28;20566;-72
2021/03/15 21:46:36;;;;;;;2.53;2.33;;;7.70;41.70;;;;;;10426210;28;20225;-72
2021/03/15 21:51:38;;;;;;;2.80;2.60;;;7.60;41.40;;;;;;10435380;28;20287;-72
2021/03/15 21:56:41;;;;;;;2.70;2.50;;;7.50;41.60;;;;;;10440864;28;20233;-72
2021/03/15 22:01:44;;;;;;;2.90;2.70;;;7.40;41.70;;;;;;10442208;28;20247;-72
2021/03/15 22:06:47;;;;;;;3.33;3.03;;;7.40;41.80;;;;;;10433939;28;20220;-73
2021/03/15 22:11:55;;;;;;;3.27;3.07;;;7.30;41.90;;;;;;10441695;28;20312;-72
2021/03/15 22:16:58;;;;;;;4.53;3.33;;;7.30;42.10;;;;;;10443323;28;20321;-73
2021/03/15 22:22:00;;;;;;;3.87;3.47;;;7.30;42.10;;;;;;10436485;28;20244;-73
2021/03/15 22:27:04;;;;;;;4.13;3.83;;;7.30;42.20;;;;;;10432556;28;20393;-73
2021/03/15 22:32:07;;;;;;;4.00;3.70;;;7.30;42.50;;;;;;10432537;28;20233;-73
2021/03/15 22:37:10;;;;;;;4.37;3.97;;;7.40;42.30;;;;;;10442276;28;20239;-72
2021/03/15 22:42:13;;;;;;;4.67;4.27;;;7.40;42.30;;;;;;10436852;28;20312;-73
2021/03/15 22:47:15;;;;;;;5.10;4.60;;;7.40;42.50;;;;;;10425147;28;20308;-73
2021/03/15 22:52:18;;;;;;;5.10;4.60;;;7.40;42.50;;;;;;10422411;28;20230;-73
2021/03/15 22:57:21;;;;;;;5.10;4.70;;;7.40;42.40;;;;;;10425878;28;20229;-73
2021/03/15 23:02:23;;;;;;;5.20;4.70;;;7.40;42.70;;;;;;10432418;28;20300;-72
2021/03/15 23:07:26;;;;;;;5.30;4.80;;;7.40;42.50;;;;;;10432453;28;20225;-73
2021/03/15 23:12:29;;;;;;;5.37;4.87;;;7.40;42.50;;;;;;10434898;28;20228;-72
2021/03/15 23:17:31;;;;;;;5.63;5.13;;;7.40;42.70;;;;;;10432767;28;20241;-73
2021/03/15 23:22:34;;;;;;;5.83;4.90;;;7.50;42.60;;;;;;10432094;28;20228;-72
2021/03/15 23:27:38;;;;;;;5.27;4.77;;;7.40;42.50;;;;;;10439902;28;20235;-73
2021/03/15 23:32:40;;;;;;;5.63;5.13;;;7.50;42.50;;;;;;10423884;28;20225;-72
2021/03/15 23:37:43;;;;;;;5.00;4.53;;;7.40;42.30;;;;;;10420912;28;20229;-73
2021/03/15 23:42:46;;;;;;;8.00;5.93;;;7.50;42.40;;;;;;10434126;28;20221;-73
2021/03/15 23:47:49;;;;;;;5.63;5.13;;;7.50;42.50;;;;;;10435120;28;20221;-73
2021/03/15 23:52:51;;;;;;;6.10;5.60;;;7.40;42.30;;;;;;10428646;28;20220;-73
2021/03/15 23:57:54;;;;;;;6.20;5.63;;;7.40;42.50;;;;;;10436733;28;20225;-73
